Terminal Aerodrome Forecast
Issued by NWS

Home | Current Version | Previous Version | Text Only | Print | Product List | Glossary On
Versions: 1 2 3 4 5 6 7 8 9 10 11 12 13 14 15 16 17 18
000
FTUS44 KOUN 291256 AAA
TAFCSM
TAF AMD
KCSM 291256Z 2913/3012 18006KT P6SM SCT080
     FM291800 14012KT P6SM BKN030
      TEMPO 2918/2922 4SM -TSRA BKN015CB
     FM292200 06016KT P6SM VCSH BKN015
      TEMPO 2922/3002 4SM -TSRA BKN007CB
     FM300200 11012KT P6SM BKN250
     FM300300 13009KT P6SM OVC025=

USA.gov is the U.S. government's official web portal to all federal, state and local government web resources and services.